Time;durP1;ratioP1;P1;durP2;ratioP2;P2;SDS_P1;SDS_P2;PMS_P1;PMS_P2;Temp;Humidity;BMP_temperature;BMP_pressure;BME280_temperature;BME280_humidity;BME280_pressure;Samples;Min_cycle;Max_cycle;Signal;HPM_P1;HPM_P2
2022/01/08 00:00:47;;;;;;;8.60;1.85;;;10.60;81.30;;;;;;4955080;28;20055;-74
2022/01/08 00:03:12;;;;;;;8.57;1.65;;;10.60;81.50;;;;;;4954231;28;20419;-74
2022/01/08 00:05:38;;;;;;;9.57;1.70;;;10.60;81.30;;;;;;4951203;28;20034;-74
2022/01/08 00:08:05;;;;;;;6.80;1.73;;;10.60;81.40;;;;;;4956780;28;20031;-73
2022/01/08 00:10:31;;;;;;;5.60;1.80;;;10.60;81.50;;;;;;4954805;28;20039;-73
2022/01/08 00:13:01;;;;;;;9.20;1.88;;;10.60;81.60;;;;;;4954492;28;20053;-73
2022/01/08 00:15:27;;;;;;;9.35;1.77;;;10.60;81.90;;;;;;4954918;28;20118;-73
2022/01/08 00:17:53;;;;;;;8.93;1.83;;;10.70;81.70;;;;;;4951525;28;20700;-74
2022/01/08 00:20:18;;;;;;;7.07;1.90;;;10.70;81.80;;;;;;4955413;28;20038;-74
2022/01/08 00:22:44;;;;;;;8.95;1.63;;;10.70;81.70;;;;;;4953670;28;20063;-75
2022/01/08 00:25:10;;;;;;;9.50;1.95;;;10.70;82.00;;;;;;4954196;28;20015;-74
2022/01/08 00:27:36;;;;;;;11.75;2.35;;;10.70;82.10;;;;;;4954576;28;20031;-73
2022/01/08 00:30:03;;;;;;;7.47;1.60;;;10.60;82.10;;;;;;4952281;28;20385;-73
2022/01/08 00:32:28;;;;;;;11.00;1.73;;;10.60;82.10;;;;;;4951438;28;20408;-73
2022/01/08 00:34:54;;;;;;;9.27;2.22;;;10.70;82.40;;;;;;4955826;28;20027;-73
2022/01/08 00:37:20;;;;;;;8.40;1.60;;;10.70;82.50;;;;;;4950650;28;20019;-73
2022/01/08 00:39:47;;;;;;;9.07;1.55;;;10.70;82.50;;;;;;4951033;28;20062;-73
2022/01/08 00:42:13;;;;;;;8.23;1.77;;;10.70;82.60;;;;;;4950773;28;20118;-73
2022/01/08 00:44:38;;;;;;;10.80;1.98;;;10.70;82.50;;;;;;4950727;28;20102;-73
2022/01/08 00:47:04;;;;;;;10.77;1.90;;;10.60;82.60;;;;;;4956279;28;20031;-73
2022/01/08 00:49:30;;;;;;;6.72;1.27;;;10.60;82.70;;;;;;4954321;28;20044;-73
2022/01/08 00:51:55;;;;;;;7.38;2.03;;;10.60;82.90;;;;;;4958588;28;20027;-74
2022/01/08 00:54:21;;;;;;;10.65;1.80;;;10.60;82.70;;;;;;4964358;28;20035;-73
2022/01/08 00:56:48;;;;;;;7.35;1.77;;;10.70;83.80;;;;;;4949674;29;20024;-74
2022/01/08 00:59:14;;;;;;;10.55;1.98;;;10.70;82.80;;;;;;4954630;28;20507;-73
2022/01/08 01:01:40;;;;;;;9.93;1.92;;;10.70;83.60;;;;;;4952655;28;20042;-74
2022/01/08 01:04:05;;;;;;;9.95;1.90;;;10.70;82.70;;;;;;4952745;28;20035;-74
2022/01/08 01:06:31;;;;;;;12.93;2.45;;;10.70;82.60;;;;;;4954052;28;20027;-74
2022/01/08 01:08:56;;;;;;;11.80;1.90;;;10.70;82.50;;;;;;4949416;28;20507;-73
2022/01/08 01:11:22;;;;;;;27.33;9.38;;;10.70;82.70;;;;;;4953704;28;20066;-74
2022/01/08 01:13:48;;;;;;;22.15;6.90;;;10.70;82.40;;;;;;4954679;28;20416;-74
2022/01/08 01:16:13;;;;;;;13.65;3.72;;;10.70;82.70;;;;;;4954002;28;20047;-73
2022/01/08 01:18:39;;;;;;;12.07;3.40;;;10.70;82.50;;;;;;4950544;28;20494;-73
2022/01/08 01:21:04;;;;;;;13.77;3.10;;;10.70;82.50;;;;;;4942180;28;20125;-73
2022/01/08 01:23:36;;;;;;;12.60;2.58;;;10.70;82.50;;;;;;4951302;28;20610;-74
2022/01/08 01:26:05;;;;;;;14.23;3.05;;;10.70;82.40;;;;;;4954173;28;20020;-73
2022/01/08 01:28:36;;;;;;;9.50;3.25;;;10.60;82.20;;;;;;4953932;28;20500;-74
2022/01/08 01:47:10;;;;;;;10.93;2.30;;;10.60;82.70;;;;;;4955113;28;20081;-73
2022/01/08 01:49:38;;;;;;;9.18;1.83;;;10.60;82.70;;;;;;4953358;28;20035;-73
2022/01/08 01:52:05;;;;;;;11.60;2.00;;;10.70;83.00;;;;;;4952172;28;20094;-73
2022/01/08 01:54:32;;;;;;;13.77;2.50;;;10.70;82.70;;;;;;4953359;28;20034;-73
2022/01/08 01:56:59;;;;;;;9.02;2.17;;;10.70;82.60;;;;;;4949207;28;20023;-73
2022/01/08 01:59:26;;;;;;;8.98;2.08;;;10.70;82.70;;;;;;4952510;28;20510;-73
2022/01/08 02:01:52;;;;;;;11.20;2.55;;;10.80;82.60;;;;;;4953006;28;20056;-73
2022/01/08 02:04:18;;;;;;;14.23;2.28;;;10.70;82.50;;;;;;4956138;28;20028;-73
2022/01/08 02:06:44;;;;;;;11.40;2.33;;;10.70;82.40;;;;;;4956292;28;20339;-73
2022/01/08 02:09:10;;;;;;;12.20;2.13;;;10.70;82.50;;;;;;4955614;28;20438;-73
2022/01/08 02:11:54;;;;;;;11.85;2.38;;;10.70;82.50;;;;;;4953229;28;20539;-73
2022/01/08 02:14:20;;;;;;;12.73;2.30;;;10.60;82.40;;;;;;4966003;28;20118;-73
2022/01/08 02:16:45;;;;;;;10.02;2.50;;;10.60;82.60;;;;;;4957106;28;20468;-73
2022/01/08 02:19:11;;;;;;;13.55;2.25;;;10.60;82.60;;;;;;4956541;28;20027;-73
2022/01/08 02:21:37;;;;;;;14.13;2.38;;;10.60;82.50;;;;;;4956189;28;20031;-73
2022/01/08 02:24:02;;;;;;;9.35;1.90;;;10.50;82.80;;;;;;4954249;28;20020;-73
2022/01/08 02:26:28;;;;;;;15.00;2.58;;;10.50;82.80;;;;;;4954990;28;20096;-73
2022/01/08 02:28:54;;;;;;;14.43;2.70;;;10.50;82.90;;;;;;4957739;28;20043;-73
2022/01/08 02:31:25;;;;;;;13.02;2.20;;;10.60;83.00;;;;;;4945098;28;20028;-73
2022/01/08 02:33:52;;;;;;;16.48;2.78;;;10.60;82.70;;;;;;4949714;28;20019;-73
2022/01/08 02:36:18;;;;;;;10.30;2.00;;;10.50;82.60;;;;;;4954594;28;20111;-73
2022/01/08 02:38:44;;;;;;;9.35;2.30;;;10.50;82.70;;;;;;4951400;28;20074;-73
2022/01/08 02:41:10;;;;;;;10.95;2.10;;;10.60;83.10;;;;;;4957593;28;20140;-73
2022/01/08 02:43:41;;;;;;;12.82;2.13;;;10.60;82.70;;;;;;4955932;28;20405;-73
2022/01/08 02:46:07;;;;;;;11.35;2.42;;;10.50;82.60;;;;;;4956101;28;20054;-73
2022/01/08 02:48:33;;;;;;;13.70;2.20;;;10.60;83.00;;;;;;4955953;28;20120;-73
2022/01/08 02:50:58;;;;;;;12.77;2.00;;;10.60;82.70;;;;;;4953189;28;20038;-73
2022/01/08 02:53:24;;;;;;;11.52;2.20;;;10.50;82.60;;;;;;4955597;28;20031;-73
2022/01/08 02:55:50;;;;;;;11.40;2.30;;;10.50;82.70;;;;;;4956995;28;20480;-73
2022/01/08 02:58:16;;;;;;;10.90;2.13;;;10.50;82.60;;;;;;4956012;28;20038;-73
2022/01/08 03:00:42;;;;;;;10.82;2.30;;;10.50;82.90;;;;;;4954933;28;20106;-73
2022/01/08 03:03:07;;;;;;;14.05;2.40;;;10.50;82.80;;;;;;4954147;28;20043;-73
2022/01/08 03:05:33;;;;;;;9.98;1.92;;;10.60;83.20;;;;;;4953146;28;20077;-73
2022/01/08 03:07:58;;;;;;;14.20;2.22;;;10.60;82.90;;;;;;4957886;28;20110;-73
2022/01/08 03:10:24;;;;;;;11.57;2.50;;;10.60;83.10;;;;;;4955687;28;20066;-74
2022/01/08 03:12:50;;;;;;;10.60;2.22;;;10.60;83.30;;;;;;4955577;28;20447;-73
2022/01/08 03:15:18;;;;;;;8.75;2.13;;;10.60;82.70;;;;;;4955067;28;20062;-73
2022/01/08 03:17:45;;;;;;;12.35;2.22;;;10.70;82.70;;;;;;4950281;28;20042;-73
2022/01/08 03:20:13;;;;;;;15.60;2.15;;;10.70;82.70;;;;;;4957283;28;20106;-73
2022/01/08 03:22:42;;;;;;;15.77;2.28;;;10.70;82.80;;;;;;4954441;28;20031;-73
2022/01/08 03:25:08;;;;;;;7.72;1.48;;;10.80;82.60;;;;;;4955446;28;20135;-73
2022/01/08 03:27:34;;;;;;;11.00;2.13;;;10.80;82.70;;;;;;4955448;28;20053;-73
2022/01/08 03:30:01;;;;;;;9.80;2.00;;;10.80;82.60;;;;;;4952901;28;20039;-73
2022/01/08 03:32:26;;;;;;;12.30;2.15;;;10.80;82.60;;;;;;4954130;28;20046;-73
2022/01/08 03:34:53;;;;;;;11.27;1.75;;;10.90;82.40;;;;;;4955344;28;20399;-73
2022/01/08 03:37:19;;;;;;;12.50;1.92;;;10.80;82.20;;;;;;4955383;28;20114;-73
2022/01/08 03:39:44;;;;;;;11.75;2.42;;;10.80;82.20;;;;;;4955427;28;20496;-73
2022/01/08 03:42:10;;;;;;;10.20;1.90;;;10.80;82.20;;;;;;4954025;28;20052;-73
2022/01/08 03:44:36;;;;;;;11.85;2.67;;;10.80;82.00;;;;;;4952251;28;20131;-74
2022/01/08 03:49:46;;;;;;;8.57;1.88;;;10.70;82.40;;;;;;4954419;28;20050;-73
2022/01/08 03:52:12;;;;;;;9.07;1.88;;;10.60;82.20;;;;;;4955022;28;20020;-73
2022/01/08 03:54:39;;;;;;;11.60;2.03;;;10.60;82.50;;;;;;4955137;28;20037;-74
2022/01/08 03:57:05;;;;;;;14.48;2.40;;;10.50;82.50;;;;;;4951821;28;20107;-73
2022/01/08 03:59:30;;;;;;;9.65;2.03;;;10.60;82.90;;;;;;4952648;28;20113;-73
2022/01/08 04:01:56;;;;;;;12.20;2.17;;;10.50;82.70;;;;;;4954670;28;20038;-73
2022/01/08 04:04:22;;;;;;;10.82;2.28;;;10.50;82.60;;;;;;4953737;28;20088;-73
2022/01/08 04:06:47;;;;;;;9.98;1.83;;;10.50;82.60;;;;;;4954939;28;20074;-73
2022/01/08 04:09:13;;;;;;;9.20;1.77;;;10.50;82.60;;;;;;4954550;28;20035;-73
2022/01/08 04:11:39;;;;;;;13.65;2.15;;;10.50;82.60;;;;;;4949785;28;20535;-73
2022/01/08 04:14:05;;;;;;;11.38;2.33;;;10.40;82.60;;;;;;4987655;28;20086;-73
2022/01/08 04:16:36;;;;;;;10.15;2.25;;;10.40;82.90;;;;;;4954528;28;20058;-73
2022/01/08 04:19:02;;;;;;;9.93;2.10;;;10.40;83.00;;;;;;4954900;28;20027;-73
2022/01/08 04:24:02;;;;;;;13.52;2.15;;;10.50;83.00;;;;;;4939998;28;20069;-73
2022/01/08 04:26:28;;;;;;;12.50;2.40;;;10.40;82.50;;;;;;4952077;28;20496;-73
2022/01/08 04:28:55;;;;;;;9.57;1.90;;;10.40;82.50;;;;;;4956028;28;20023;-73
2022/01/08 04:31:24;;;;;;;12.45;2.40;;;10.40;83.00;;;;;;4954074;28;20034;-74
2022/01/08 04:33:50;;;;;;;9.23;1.83;;;10.40;83.00;;;;;;4953574;28;20020;-73
2022/01/08 04:36:17;;;;;;;12.32;2.17;;;10.40;83.00;;;;;;4953000;28;20037;-73
2022/01/08 04:38:43;;;;;;;11.23;1.98;;;10.40;82.70;;;;;;4950570;28;20044;-73
2022/01/08 04:41:09;;;;;;;12.60;2.00;;;10.30;82.80;;;;;;4970059;28;20038;-73
2022/01/08 04:43:37;;;;;;;15.20;2.25;;;10.30;83.10;;;;;;4955296;28;20031;-73
2022/01/08 04:46:03;;;;;;;12.30;2.13;;;10.30;82.80;;;;;;4953002;28;20051;-73
2022/01/08 04:48:29;;;;;;;12.60;2.38;;;10.30;83.10;;;;;;4954621;28;20027;-73
2022/01/08 04:50:55;;;;;;;10.98;2.40;;;10.20;83.00;;;;;;4950610;28;20471;-73
2022/01/08 04:53:20;;;;;;;9.00;2.00;;;10.20;83.40;;;;;;4954174;28;20085;-73
2022/01/08 04:55:46;;;;;;;8.07;1.85;;;10.20;83.40;;;;;;4955157;28;20081;-74
2022/01/08 04:58:11;;;;;;;11.50;1.80;;;10.20;83.70;;;;;;4953706;28;20407;-73
2022/01/08 05:00:38;;;;;;;10.88;1.80;;;10.30;83.70;;;;;;4952689;28;20030;-74
2022/01/08 05:03:04;;;;;;;12.60;2.10;;;10.30;83.30;;;;;;4952463;28;20031;-73
2022/01/08 05:05:30;;;;;;;10.45;2.30;;;10.40;83.60;;;;;;4951386;28;20035;-74
2022/01/08 05:07:56;;;;;;;8.60;1.98;;;10.30;83.30;;;;;;4955818;28;20483;-73
2022/01/08 05:10:22;;;;;;;13.18;2.10;;;10.30;83.10;;;;;;4952856;28;20562;-73
2022/01/08 05:12:48;;;;;;;7.25;1.58;;;10.30;83.30;;;;;;4953943;28;20512;-73
2022/01/08 05:15:15;;;;;;;13.13;1.75;;;10.30;83.30;;;;;;4951999;28;20093;-74
2022/01/08 05:17:42;;;;;;;11.10;2.00;;;10.30;83.40;;;;;;4948835;28;20049;-73
2022/01/08 05:20:12;;;;;;;15.63;2.20;;;10.30;83.10;;;;;;4955887;28;20499;-73
2022/01/08 05:23:00;;;;;;;11.10;2.42;;;10.20;83.50;;;;;;4952730;28;20027;-73
2022/01/08 05:25:26;;;;;;;12.07;1.75;;;10.20;83.60;;;;;;4952717;28;20180;-73
2022/01/08 05:27:52;;;;;;;11.55;1.60;;;10.20;83.90;;;;;;4953960;28;20038;-73
2022/01/08 05:30:21;;;;;;;11.52;2.22;;;10.30;83.70;;;;;;4953374;28;20038;-73
2022/01/08 05:32:47;;;;;;;8.40;1.55;;;10.20;83.50;;;;;;4949679;28;20030;-73
2022/01/08 05:35:12;;;;;;;10.20;2.10;;;10.20;83.70;;;;;;4955270;28;20036;-73
2022/01/08 05:37:38;;;;;;;13.27;2.47;;;10.20;84.00;;;;;;4953715;28;20032;-73
2022/01/08 05:40:05;;;;;;;10.15;2.30;;;10.20;84.00;;;;;;4952340;28;20031;-73
2022/01/08 05:42:31;;;;;;;10.38;2.05;;;10.20;83.60;;;;;;4951673;28;20117;-73
2022/01/08 05:44:56;;;;;;;13.45;2.35;;;10.20;83.90;;;;;;4950767;28;20122;-73
2022/01/08 05:47:22;;;;;;;9.63;1.80;;;10.20;83.90;;;;;;4953310;28;20492;-73
2022/01/08 05:49:48;;;;;;;12.35;2.20;;;10.30;84.30;;;;;;4953874;28;20083;-73
2022/01/08 05:52:14;;;;;;;10.60;2.35;;;10.40;84.00;;;;;;4953740;28;20019;-73
2022/01/08 05:54:40;;;;;;;9.48;2.03;;;10.40;83.60;;;;;;4953614;28;20039;-73
2022/01/08 05:57:06;;;;;;;7.55;1.75;;;10.30;83.40;;;;;;4950897;28;20553;-73
2022/01/08 05:59:32;;;;;;;9.77;2.70;;;10.40;83.70;;;;;;4950759;28;20098;-73
2022/01/08 06:01:58;;;;;;;12.02;2.13;;;10.30;83.20;;;;;;4955683;28;20039;-73
2022/01/08 06:04:24;;;;;;;8.18;1.80;;;10.30;83.40;;;;;;4953566;28;20031;-73
2022/01/08 06:06:50;;;;;;;10.40;1.98;;;10.20;83.50;;;;;;4953321;28;20085;-74
2022/01/08 06:09:16;;;;;;;11.77;1.83;;;10.30;83.80;;;;;;4953145;28;20453;-73
2022/01/08 06:11:42;;;;;;;10.27;2.00;;;10.30;83.40;;;;;;4948634;28;20043;-73
2022/01/08 06:14:08;;;;;;;10.88;2.20;;;10.20;83.50;;;;;;4954009;28;20027;-73
2022/01/08 06:16:34;;;;;;;10.73;2.05;;;10.20;84.10;;;;;;4953079;28;20034;-74
2022/01/08 06:19:12;;;;;;;11.98;1.73;;;10.20;83.80;;;;;;4953203;28;20051;-73
2022/01/08 06:21:38;;;;;;;9.05;1.90;;;10.20;83.50;;;;;;4953516;28;20168;-73
2022/01/08 06:24:05;;;;;;;13.18;1.90;;;10.20;84.00;;;;;;4948782;28;20118;-73
2022/01/08 06:26:32;;;;;;;11.70;1.98;;;10.10;84.30;;;;;;4950413;28;20061;-73
2022/01/08 06:28:58;;;;;;;9.02;1.90;;;10.10;84.40;;;;;;4952262;28;20118;-73
2022/01/08 06:31:24;;;;;;;10.55;2.17;;;10.10;84.40;;;;;;4948211;28;20022;-73
2022/01/08 06:33:51;;;;;;;13.43;2.33;;;10.10;84.20;;;;;;4949835;28;20035;-73
2022/01/08 06:36:19;;;;;;;8.75;2.00;;;10.20;84.20;;;;;;4946401;28;20045;-73
2022/01/08 06:38:48;;;;;;;13.95;2.55;;;10.10;84.30;;;;;;4943284;28;20027;-73
2022/01/08 06:41:14;;;;;;;10.60;1.83;;;10.10;84.20;;;;;;4963513;28;20427;-74
2022/01/08 06:43:40;;;;;;;12.13;2.33;;;10.10;84.90;;;;;;4952524;28;20562;-74
2022/01/08 06:46:06;;;;;;;10.65;1.90;;;10.10;84.30;;;;;;4952706;28;20522;-74
2022/01/08 06:48:32;;;;;;;10.93;2.58;;;10.10;84.70;;;;;;4953427;28;20137;-74
2022/01/08 06:50:58;;;;;;;12.77;2.22;;;10.10;84.30;;;;;;4952721;28;20046;-74
2022/01/08 06:53:23;;;;;;;10.25;2.08;;;10.20;84.70;;;;;;4955072;28;20027;-74
2022/01/08 06:55:49;;;;;;;9.63;2.30;;;10.10;85.60;;;;;;4956550;28;20035;-74
2022/01/08 06:58:15;;;;;;;11.43;1.75;;;10.20;84.90;;;;;;4955910;28;20110;-72
2022/01/08 07:00:41;;;;;;;10.60;2.40;;;10.10;84.50;;;;;;4955737;28;20035;-73
2022/01/08 07:03:10;;;;;;;13.70;1.88;;;10.20;85.10;;;;;;4954481;28;20035;-72
2022/01/08 07:05:39;;;;;;;13.40;2.30;;;10.20;85.00;;;;;;4952279;28;20043;-73
2022/01/08 07:08:05;;;;;;;11.32;1.90;;;10.20;84.80;;;;;;4957563;28;20039;-73
2022/01/08 07:10:32;;;;;;;11.75;2.20;;;10.30;85.10;;;;;;4961893;28;20534;-72
2022/01/08 07:12:57;;;;;;;9.60;1.88;;;10.30;84.90;;;;;;4961144;28;20055;-73
2022/01/08 07:15:23;;;;;;;12.50;3.00;;;10.20;84.70;;;;;;4955388;28;20110;-72
2022/01/08 07:17:49;;;;;;;8.68;2.35;;;10.20;85.10;;;;;;4951865;28;20081;-73
2022/01/08 07:20:15;;;;;;;9.05;2.60;;;10.30;85.10;;;;;;4956690;28;20027;-73
2022/01/08 07:22:40;;;;;;;10.75;2.10;;;10.40;85.30;;;;;;4954370;28;20066;-73
2022/01/08 07:25:07;;;;;;;10.38;2.10;;;10.30;84.60;;;;;;4955537;28;20500;-73
2022/01/08 07:27:33;;;;;;;9.10;2.00;;;10.40;85.10;;;;;;4955796;28;20115;-73
2022/01/08 07:30:00;;;;;;;12.88;2.03;;;10.40;84.70;;;;;;4952674;28;20495;-73
2022/01/08 07:32:26;;;;;;;12.68;1.83;;;10.40;84.90;;;;;;4954205;28;20031;-73
2022/01/08 07:34:52;;;;;;;11.35;1.70;;;10.30;84.90;;;;;;4955130;28;20030;-73
2022/01/08 07:37:18;;;;;;;10.32;1.92;;;10.30;85.00;;;;;;4955478;28;20027;-73
2022/01/08 07:39:43;;;;;;;11.93;2.15;;;10.40;85.00;;;;;;4954386;28;20030;-73
2022/01/08 07:42:09;;;;;;;10.70;1.60;;;10.40;85.10;;;;;;4953906;28;20117;-73
2022/01/08 07:44:35;;;;;;;17.67;5.97;;;10.40;85.00;;;;;;4951130;28;20102;-73
2022/01/08 07:47:00;;;;;;;11.70;2.78;;;10.40;85.20;;;;;;4945542;28;20535;-73
2022/01/08 07:49:27;;;;;;;13.05;2.10;;;10.40;85.30;;;;;;4954259;28;20043;-73
2022/01/08 07:51:52;;;;;;;8.75;1.70;;;10.50;85.40;;;;;;4952918;28;20046;-73
2022/01/08 07:54:18;;;;;;;10.88;2.55;;;10.50;85.50;;;;;;4952450;28;20031;-73
2022/01/08 07:56:44;;;;;;;13.18;2.08;;;10.50;85.00;;;;;;4950731;28;20103;-73
2022/01/08 07:59:09;;;;;;;12.98;2.65;;;10.60;85.30;;;;;;4944274;28;20481;-73
2022/01/08 08:01:35;;;;;;;10.77;1.83;;;10.60;85.10;;;;;;4950750;28;20047;-73
2022/01/08 08:04:01;;;;;;;11.77;2.25;;;10.60;85.30;;;;;;4949058;28;20041;-73
2022/01/08 08:06:27;;;;;;;13.20;2.00;;;10.60;85.20;;;;;;4949562;28;20118;-73
2022/01/08 08:08:53;;;;;;;12.00;2.25;;;10.60;84.90;;;;;;4946421;28;20520;-72
2022/01/08 08:11:18;;;;;;;9.50;1.88;;;10.60;85.30;;;;;;4951024;28;20054;-72
2022/01/08 08:13:44;;;;;;;12.52;1.70;;;10.60;85.40;;;;;;4955167;28;20077;-73
2022/01/08 08:16:10;;;;;;;12.25;1.63;;;10.60;85.20;;;;;;4954520;28;20028;-73
2022/01/08 08:18:35;;;;;;;8.80;1.65;;;10.50;85.40;;;;;;4954706;28;20054;-73
2022/01/08 08:21:01;;;;;;;11.57;2.35;;;10.60;85.40;;;;;;4950656;28;20418;-73
2022/01/08 08:23:27;;;;;;;9.30;2.00;;;10.60;86.50;;;;;;4952909;28;20506;-73
2022/01/08 08:25:52;;;;;;;7.88;1.50;;;10.60;85.40;;;;;;4956059;28;20534;-73
2022/01/08 08:28:18;;;;;;;11.60;2.38;;;10.60;85.40;;;;;;4954142;28;20088;-73
2022/01/08 08:30:44;;;;;;;9.88;2.15;;;10.60;85.50;;;;;;4953154;28;20036;-73
2022/01/08 08:33:09;;;;;;;13.27;2.13;;;10.60;85.80;;;;;;4953297;28;20015;-73
2022/01/08 08:35:35;;;;;;;7.38;1.63;;;10.60;86.40;;;;;;4950213;28;20500;-73
2022/01/08 08:38:01;;;;;;;10.52;2.03;;;10.70;86.20;;;;;;4949532;28;20108;-74
2022/01/08 08:40:27;;;;;;;8.77;1.77;;;10.70;86.20;;;;;;4950653;28;20431;-73
2022/01/08 08:42:53;;;;;;;11.23;1.90;;;10.70;86.00;;;;;;4954126;28;20031;-74
2022/01/08 08:45:18;;;;;;;8.27;1.60;;;10.70;86.10;;;;;;4953315;28;20025;-74
2022/01/08 08:47:44;;;;;;;8.38;1.60;;;10.70;86.50;;;;;;4935082;28;20043;-74
2022/01/08 08:50:13;;;;;;;11.30;1.95;;;10.70;86.60;;;;;;4955876;28;20518;-74
2022/01/08 08:52:39;;;;;;;7.75;1.50;;;10.60;86.40;;;;;;4953879;28;20028;-74
2022/01/08 08:55:06;;;;;;;11.35;1.90;;;10.60;87.20;;;;;;4951717;28;20031;-73
2022/01/08 08:57:32;;;;;;;11.60;1.85;;;10.70;87.10;;;;;;4954108;28;20051;-73
2022/01/08 08:59:57;;;;;;;13.23;2.00;;;10.70;87.30;;;;;;4951576;28;20062;-74
2022/01/08 09:02:23;;;;;;;13.77;2.40;;;10.70;86.70;;;;;;4953457;28;20106;-77
2022/01/08 09:04:50;;;;;;;6.78;1.70;;;10.80;86.50;;;;;;4954660;28;20023;-76
2022/01/08 09:07:16;;;;;;;12.90;2.10;;;10.80;86.50;;;;;;4953639;28;20035;-78
2022/01/08 09:09:43;;;;;;;10.30;1.73;;;10.80;86.70;;;;;;4952721;28;20043;-74
2022/01/08 09:12:10;;;;;;;6.70;2.10;;;10.70;87.20;;;;;;4952140;28;20047;-74
2022/01/08 09:14:35;;;;;;;10.57;2.15;;;10.80;86.90;;;;;;4948731;28;20046;-74
2022/01/08 09:17:04;;;;;;;9.80;2.10;;;10.80;86.70;;;;;;4955617;28;20023;-74
2022/01/08 09:19:30;;;;;;;13.50;2.17;;;10.90;86.70;;;;;;4953789;28;20034;-74
2022/01/08 09:21:56;;;;;;;10.38;1.55;;;10.90;86.80;;;;;;4953465;28;20098;-74
2022/01/08 09:24:23;;;;;;;11.13;1.65;;;11.00;86.90;;;;;;4953937;28;20050;-73
2022/01/08 09:26:49;;;;;;;8.80;1.50;;;11.00;86.70;;;;;;4949779;28;20107;-73
2022/01/08 09:29:16;;;;;;;13.88;1.88;;;11.10;86.40;;;;;;4955451;28;20046;-74
2022/01/08 09:31:42;;;;;;;9.98;1.52;;;11.00;86.80;;;;;;4952572;28;20034;-73
2022/01/08 09:34:09;;;;;;;9.82;1.73;;;11.10;86.70;;;;;;4947976;28;20035;-73
2022/01/08 09:36:37;;;;;;;9.90;1.50;;;11.10;86.80;;;;;;4947712;28;20062;-73
2022/01/08 09:39:04;;;;;;;6.60;1.23;;;11.20;86.40;;;;;;4948223;28;20019;-73
2022/01/08 09:41:30;;;;;;;12.02;1.85;;;11.20;86.10;;;;;;4948648;28;20071;-74
2022/01/08 09:43:56;;;;;;;11.25;1.65;;;11.20;86.30;;;;;;4955507;28;20059;-73
2022/01/08 09:46:21;;;;;;;6.43;1.35;;;11.30;86.10;;;;;;4952487;28;20038;-74
2022/01/08 09:48:50;;;;;;;8.57;1.67;;;11.20;85.70;;;;;;4952145;28;20042;-72
2022/01/08 09:51:17;;;;;;;8.63;2.40;;;11.30;85.60;;;;;;4953047;28;20038;-73
2022/01/08 09:53:43;;;;;;;8.68;2.20;;;11.30;85.70;;;;;;4949465;28;20050;-73
2022/01/08 09:56:10;;;;;;;13.15;1.83;;;11.30;85.60;;;;;;4951866;28;20058;-74
2022/01/08 09:58:36;;;;;;;7.45;1.55;;;11.30;85.40;;;;;;4946623;28;20039;-74
2022/01/08 10:01:02;;;;;;;5.78;1.27;;;11.40;85.60;;;;;;4948678;28;20054;-73
2022/01/08 10:03:33;;;;;;;8.88;1.52;;;11.40;85.60;;;;;;4952542;28;20050;-73
2022/01/08 10:06:00;;;;;;;6.00;1.33;;;11.40;85.90;;;;;;4951084;28;20034;-73
2022/01/08 10:08:31;;;;;;;7.88;1.27;;;11.30;85.60;;;;;;4951982;28;20077;-73
2022/01/08 10:11:02;;;;;;;8.05;1.92;;;11.30;85.40;;;;;;4953224;28;20039;-73
2022/01/08 10:13:32;;;;;;;8.85;1.58;;;11.30;85.50;;;;;;4953144;28;20039;-73
2022/01/08 10:18:45;;;;;;;10.98;2.03;;;11.30;85.80;;;;;;4951808;28;20034;-73
2022/01/08 10:21:21;;;;;;;10.32;1.30;;;11.20;86.10;;;;;;4946229;28;20022;-73
2022/01/08 10:23:52;;;;;;;10.02;1.60;;;11.20;86.10;;;;;;4934955;29;20111;-74
2022/01/08 10:26:20;;;;;;;8.50;1.55;;;11.20;86.20;;;;;;4966159;28;20039;-73
2022/01/08 10:28:53;;;;;;;7.28;1.80;;;11.20;86.30;;;;;;4955562;28;20115;-70
2022/01/08 10:31:22;;;;;;;8.00;1.73;;;11.30;87.30;;;;;;4956368;28;20108;-69
2022/01/08 10:34:08;;;;;;;9.43;1.40;;;11.40;87.00;;;;;;4956134;28;20381;-69
2022/01/08 10:36:37;;;;;;;9.25;1.42;;;11.40;86.60;;;;;;4956676;28;20031;-70
2022/01/08 10:39:06;;;;;;;9.95;1.45;;;11.40;86.90;;;;;;4954193;28;20039;-70
2022/01/08 10:41:32;;;;;;;7.90;1.63;;;11.40;87.00;;;;;;4953712;28;20027;-70
2022/01/08 10:44:16;;;;;;;9.07;1.48;;;11.40;86.80;;;;;;4963760;28;20038;-69
2022/01/08 10:46:45;;;;;;;9.88;1.52;;;11.30;86.60;;;;;;4954960;28;20554;-69
2022/01/08 10:49:14;;;;;;;11.48;1.45;;;11.30;87.30;;;;;;4955948;28;20373;-69
2022/01/08 10:51:40;;;;;;;11.05;2.58;;;11.30;87.60;;;;;;4956371;28;20023;-70
2022/01/08 10:54:16;;;;;;;11.20;2.03;;;11.30;87.50;;;;;;4954088;28;20053;-70
2022/01/08 10:56:46;;;;;;;12.18;2.40;;;11.30;87.60;;;;;;4952301;28;20077;-71
2022/01/08 10:59:21;;;;;;;9.25;1.50;;;11.30;87.30;;;;;;4956822;28;20037;-71
2022/01/08 11:02:08;;;;;;;6.13;1.42;;;11.30;88.50;;;;;;4954914;28;20027;-71
2022/01/08 11:04:46;;;;;;;9.23;1.70;;;11.30;88.30;;;;;;4955908;28;20043;-71
2022/01/08 11:07:29;;;;;;;8.65;1.60;;;11.30;87.60;;;;;;4954194;28;20098;-71
2022/01/08 11:10:03;;;;;;;10.38;1.73;;;11.30;87.40;;;;;;4955745;28;20089;-71
2022/01/08 11:12:37;;;;;;;5.82;1.10;;;11.30;87.70;;;;;;4955371;28;20047;-71
2022/01/08 11:17:40;;;;;;;8.30;1.90;;;11.40;87.50;;;;;;4948070;28;20387;-74
2022/01/08 11:20:11;;;;;;;8.68;1.80;;;11.40;87.20;;;;;;4947801;28;20050;-66
2022/01/08 11:22:39;;;;;;;8.43;1.60;;;11.30;86.80;;;;;;4948865;28;20413;-66
2022/01/08 11:25:08;;;;;;;10.13;2.22;;;11.30;87.50;;;;;;4957225;28;20022;-66
2022/01/08 11:27:57;;;;;;;12.02;1.98;;;11.30;87.30;;;;;;4963025;28;20027;-66
2022/01/08 11:30:24;;;;;;;7.50;1.98;;;11.20;87.30;;;;;;4963911;28;20491;-66
2022/01/08 11:32:57;;;;;;;10.90;1.67;;;11.20;87.20;;;;;;4951248;28;20393;-66
2022/01/08 11:35:24;;;;;;;7.95;1.60;;;11.20;87.90;;;;;;4955030;28;20578;-69
2022/01/08 11:37:51;;;;;;;7.70;1.50;;;11.20;87.80;;;;;;4956082;28;20035;-70
2022/01/08 11:40:20;;;;;;;9.38;1.63;;;11.20;88.00;;;;;;4961897;28;20038;-71
2022/01/08 11:42:47;;;;;;;10.90;2.35;;;11.20;88.40;;;;;;4954926;28;20035;-68
2022/01/08 11:45:27;;;;;;;6.07;1.70;;;11.20;88.50;;;;;;4961955;28;20015;-67
2022/01/08 11:47:55;;;;;;;6.95;1.98;;;11.20;88.40;;;;;;4971257;28;20024;-67
2022/01/08 11:50:24;;;;;;;8.52;1.88;;;11.20;88.40;;;;;;4966864;28;20035;-67
2022/01/08 11:53:18;;;;;;;6.38;1.40;;;11.20;88.10;;;;;;4955529;28;20490;-67
2022/01/08 11:56:04;;;;;;;6.30;1.50;;;11.20;88.60;;;;;;4958904;28;20027;-67
2022/01/08 11:58:33;;;;;;;8.70;1.10;;;11.20;88.70;;;;;;4955746;28;20043;-67
2022/01/08 12:01:06;;;;;;;6.30;1.40;;;11.20;88.40;;;;;;4953741;28;20024;-67
2022/01/08 12:03:37;;;;;;;6.97;1.00;;;11.10;88.70;;;;;;4954399;28;20031;-67
2022/01/08 12:06:21;;;;;;;6.60;1.52;;;11.20;89.30;;;;;;4951827;28;20110;-67
2022/01/08 12:09:22;;;;;;;6.20;1.27;;;11.20;88.70;;;;;;4942104;29;20027;-67
2022/01/08 12:12:00;;;;;;;6.07;1.02;;;11.20;88.90;;;;;;4934862;28;20051;-67
2022/01/08 12:14:29;;;;;;;6.07;1.20;;;11.20;88.20;;;;;;4964897;28;20081;-67
2022/01/08 12:17:18;;;;;;;6.05;1.00;;;11.20;89.30;;;;;;4955060;28;20169;-67
2022/01/08 12:20:05;;;;;;;5.10;1.05;;;11.30;89.30;;;;;;4952616;28;20024;-67
2022/01/08 12:22:32;;;;;;;7.35;1.20;;;11.30;88.90;;;;;;4952157;28;20403;-67
2022/01/08 12:25:00;;;;;;;5.30;0.90;;;11.40;89.40;;;;;;4958399;28;20544;-67
2022/01/08 12:27:35;;;;;;;4.22;0.75;;;11.30;89.20;;;;;;4955517;28;20104;-67
2022/01/08 12:30:24;;;;;;;4.93;1.40;;;11.30;89.20;;;;;;4951357;28;20538;-67
2022/01/08 12:33:17;;;;;;;6.15;0.90;;;11.40;89.30;;;;;;4936833;28;20370;-67
2022/01/08 12:35:43;;;;;;;4.43;0.88;;;11.40;89.20;;;;;;4951176;28;20404;-67
2022/01/08 12:38:24;;;;;;;4.65;0.88;;;11.40;89.70;;;;;;4954939;28;20023;-67
2022/01/08 12:40:50;;;;;;;3.95;0.70;;;11.40;89.20;;;;;;4947566;28;20035;-67
2022/01/08 12:43:17;;;;;;;5.70;0.90;;;11.40;89.30;;;;;;4950128;28;20035;-67
2022/01/08 12:45:46;;;;;;;4.50;0.85;;;11.50;89.70;;;;;;4953331;28;20110;-67
2022/01/08 12:48:13;;;;;;;5.13;0.90;;;11.40;89.40;;;;;;4959622;28;20023;-67
2022/01/08 12:50:52;;;;;;;4.55;0.90;;;11.40;89.30;;;;;;4949440;28;20031;-67
2022/01/08 12:53:22;;;;;;;5.25;1.08;;;11.40;89.30;;;;;;4963275;28;20435;-67
2022/01/08 12:55:54;;;;;;;6.05;0.93;;;11.40;89.50;;;;;;4953157;28;20027;-67
2022/01/08 12:58:23;;;;;;;4.75;1.00;;;11.50;89.90;;;;;;4953274;28;20034;-67
2022/01/08 13:01:15;;;;;;;6.45;1.02;;;11.40;89.60;;;;;;4955029;28;20026;-67
2022/01/08 13:03:59;;;;;;;4.10;0.88;;;11.30;89.30;;;;;;4953921;28;20028;-67
2022/01/08 13:06:32;;;;;;;5.07;0.95;;;11.30;89.60;;;;;;4951421;28;20022;-67
2022/01/08 13:08:59;;;;;;;7.72;1.08;;;11.30;90.00;;;;;;4950629;28;20043;-68
2022/01/08 13:11:34;;;;;;;3.58;0.80;;;11.30;90.20;;;;;;4952809;28;20016;-68